createdAt,value
2023-02-18T00:01:04.835Z,10.54
2023-02-18T00:04:07.325Z,10.72
2023-02-18T00:07:09.843Z,10.61
2023-02-18T00:10:14.742Z,10.69
2023-02-18T00:13:16.855Z,10.70
2023-02-18T00:16:19.977Z,10.69
2023-02-18T00:19:22.603Z,10.67
2023-02-18T00:22:25.175Z,10.86
2023-02-18T00:25:27.319Z,10.97
2023-02-18T00:28:30.209Z,10.94
2023-02-18T00:31:35.622Z,11.01
2023-02-18T00:34:38.824Z,11.19
2023-02-18T00:37:41.005Z,11.06
2023-02-18T00:40:43.868Z,11.08
2023-02-18T00:43:46.384Z,11.10
2023-02-18T00:46:49.817Z,11.23
2023-02-18T00:49:52.396Z,11.27
2023-02-18T00:52:54.873Z,11.42
2023-02-18T00:55:57.507Z,11.37
2023-02-18T00:59:00.547Z,11.32
2023-02-18T01:02:03.092Z,11.39
2023-02-18T01:05:06.111Z,11.40
2023-02-18T01:08:10.364Z,11.35
2023-02-18T01:11:13.339Z,11.37
2023-02-18T01:14:15.600Z,11.53
2023-02-18T01:17:20.531Z,11.68
2023-02-18T01:20:22.760Z,11.63
2023-02-18T01:23:25.503Z,11.72
2023-02-18T01:26:28.052Z,11.67
2023-02-18T01:29:30.861Z,11.76
2023-02-18T01:32:33.282Z,11.83
2023-02-18T01:35:38.642Z,11.83
2023-02-18T01:38:41.539Z,11.83
2023-02-18T01:41:44.008Z,11.84
2023-02-18T01:44:48.554Z,11.89
2023-02-18T01:47:51.037Z,11.83
2023-02-18T01:51:09.197Z,11.92
2023-02-18T01:54:14.916Z,11.93
2023-02-18T01:57:23.010Z,12.11
2023-02-18T02:00:26.025Z,12.14
2023-02-18T02:03:29.045Z,12.27
2023-02-18T02:06:31.726Z,12.67
2023-02-18T02:09:36.240Z,12.84
2023-02-18T02:12:57.774Z,12.96
2023-02-18T02:16:22.228Z,13.10
2023-02-18T02:19:32.860Z,13.12
2023-02-18T02:22:59.948Z,13.17
2023-02-18T02:26:59.609Z,13.31
2023-02-18T02:30:23.465Z,13.50
2023-02-18T02:33:53.656Z,13.53
2023-02-18T02:37:14.354Z,13.45
2023-02-18T02:40:34.004Z,13.46
2023-02-18T02:44:02.087Z,13.47
2023-02-18T02:47:44.528Z,13.47
2023-02-18T02:51:09.474Z,13.60
2023-02-18T02:54:25.546Z,13.58
2023-02-18T02:57:28.883Z,13.48
2023-02-18T03:00:35.936Z,13.45
2023-02-18T03:03:54.496Z,13.47
2023-02-18T03:07:26.805Z,13.46
2023-02-18T03:10:48.024Z,13.47
2023-02-18T03:14:09.862Z,13.35
2023-02-18T03:17:22.290Z,13.36
2023-02-18T03:20:57.206Z,13.35
2023-02-18T03:24:10.440Z,13.33
2023-02-18T03:27:17.771Z,13.23
2023-02-18T03:30:26.549Z,13.26
2023-02-18T03:33:40.711Z,13.31
2023-02-18T03:36:44.952Z,13.23
2023-02-18T03:39:54.378Z,13.25
2023-02-18T03:42:58.695Z,13.26
2023-02-18T03:46:02.375Z,13.16
2023-02-18T03:49:04.898Z,13.06
2023-02-18T03:52:07.443Z,12.96
2023-02-18T03:55:10.892Z,12.79
2023-02-18T03:58:13.498Z,12.77
2023-02-18T04:01:16.635Z,12.77
2023-02-18T04:04:19.279Z,12.73
2023-02-18T04:07:21.653Z,12.70
2023-02-18T04:10:24.144Z,12.55
2023-02-18T04:13:26.409Z,12.55
2023-02-18T04:16:28.937Z,12.68
2023-02-18T04:19:31.194Z,12.68
2023-02-18T04:22:34.448Z,12.72
2023-02-18T04:25:36.582Z,12.70
2023-02-18T04:28:39.278Z,12.69
2023-02-18T04:31:41.550Z,12.73
2023-02-18T04:34:44.416Z,12.58
2023-02-18T04:37:46.631Z,12.56
2023-02-18T04:40:49.476Z,12.54
2023-02-18T04:43:52.158Z,12.47
2023-02-18T04:46:54.683Z,12.42
2023-02-18T04:49:56.955Z,12.33
2023-02-18T04:52:59.774Z,12.31
2023-02-18T04:56:01.977Z,12.24
2023-02-18T04:59:04.599Z,12.27
2023-02-18T05:02:06.906Z,12.37
2023-02-18T05:05:09.589Z,12.26
2023-02-18T05:08:12.352Z,12.24
2023-02-18T05:11:14.919Z,12.26
2023-02-18T05:14:17.765Z,12.16
2023-02-18T05:17:20.964Z,12.25
2023-02-18T05:20:23.461Z,12.17
2023-02-18T05:23:26.080Z,12.04
2023-02-18T05:26:28.670Z,12.07
2023-02-18T05:29:31.166Z,12.09
2023-02-18T05:32:33.442Z,12.11
2023-02-18T05:35:36.340Z,12.14
2023-02-18T05:38:38.776Z,12.18
2023-02-18T05:41:41.368Z,12.07
2023-02-18T05:44:44.544Z,12.08
2023-02-18T05:47:47.043Z,12.08
2023-02-18T05:50:49.226Z,12.07
2023-02-18T05:53:51.786Z,12.03
2023-02-18T05:56:54.988Z,11.96
2023-02-18T05:59:59.281Z,12.12
2023-02-18T06:03:02.653Z,12.15
2023-02-18T06:06:06.316Z,12.10
2023-02-18T06:09:09.367Z,12.07
2023-02-18T06:12:11.947Z,12.17
2023-02-18T06:15:14.425Z,12.14
2023-02-18T06:18:16.995Z,12.08
2023-02-18T06:21:19.669Z,11.92
2023-02-18T06:24:22.144Z,11.90
2023-02-18T06:27:24.618Z,11.94
2023-02-18T06:30:27.153Z,11.98
2023-02-18T06:33:29.392Z,11.89
2023-02-18T06:36:34.936Z,11.93
2023-02-18T06:39:38.528Z,11.76
2023-02-18T06:42:41.036Z,11.70
2023-02-18T06:45:43.388Z,11.72
2023-02-18T06:48:46.341Z,11.61
2023-02-18T06:51:48.478Z,11.58
2023-02-18T06:54:51.400Z,11.61
2023-02-18T06:57:53.538Z,11.71
2023-02-18T07:00:56.044Z,11.76
2023-02-18T07:03:58.226Z,11.96
2023-02-18T07:07:00.786Z,11.85
2023-02-18T07:10:03.823Z,11.93
2023-02-18T07:13:07.135Z,11.93
2023-02-18T07:16:10.208Z,11.90
2023-02-18T07:19:14.893Z,11.92
2023-02-18T07:22:17.765Z,12.05
2023-02-18T07:25:23.055Z,12.15
2023-02-18T07:28:25.863Z,12.06
2023-02-18T07:31:28.446Z,12.26
2023-02-18T07:34:30.678Z,12.35
2023-02-18T07:37:33.839Z,12.44
2023-02-18T07:40:36.332Z,12.41
2023-02-18T07:43:38.855Z,12.57
2023-02-18T07:46:42.368Z,12.73
2023-02-18T07:49:46.265Z,12.90
2023-02-18T07:52:48.405Z,13.21
2023-02-18T07:55:50.976Z,13.35
2023-02-18T07:58:53.139Z,13.28
2023-02-18T08:01:57.844Z,13.33
2023-02-18T08:05:01.195Z,13.40
2023-02-18T08:08:03.601Z,13.31
2023-02-18T08:11:18.428Z,13.21
2023-02-18T08:14:21.649Z,13.27
2023-02-18T08:17:24.176Z,13.36
2023-02-18T08:20:26.659Z,13.58
2023-02-18T08:23:29.609Z,13.71
2023-02-18T08:26:31.808Z,13.78
2023-02-18T08:29:34.329Z,13.92
2023-02-18T08:32:36.992Z,13.90
2023-02-18T08:35:39.839Z,13.99
2023-02-18T08:38:42.223Z,14.07
2023-02-18T08:41:44.836Z,14.07
2023-02-18T08:44:47.069Z,14.20
2023-02-18T08:48:18.862Z,14.12
2023-02-18T08:51:17.272Z,14.06
2023-02-18T08:54:19.918Z,14.01
2023-02-18T08:57:22.203Z,14.25
2023-02-18T09:00:25.268Z,14.36
2023-02-18T09:03:27.489Z,14.43
2023-02-18T09:06:30.119Z,14.61
2023-02-18T09:09:33.184Z,14.63
2023-02-18T09:12:36.483Z,14.22
2023-02-18T09:15:38.776Z,14.12
2023-02-18T09:18:45.316Z,13.75
2023-02-18T09:21:47.562Z,13.53
2023-02-18T09:24:50.441Z,13.52
2023-02-18T09:27:52.717Z,13.31
2023-02-18T09:30:55.409Z,13.48
2023-02-18T09:34:02.880Z,13.55
2023-02-18T09:37:06.595Z,13.79
2023-02-18T09:40:15.506Z,13.99
2023-02-18T09:43:31.302Z,14.06
2023-02-18T09:46:38.836Z,14.09
2023-02-18T09:49:47.453Z,14.30
2023-02-18T09:52:49.902Z,14.14
2023-02-18T09:56:00.536Z,14.14
2023-02-18T09:59:08.204Z,14.22
2023-02-18T10:02:17.449Z,14.35
2023-02-18T10:05:21.108Z,14.46
2023-02-18T10:08:27.468Z,14.39
2023-02-18T10:11:35.139Z,14.39
2023-02-18T10:14:38.283Z,14.37
2023-02-18T10:17:40.966Z,14.38
2023-02-18T10:20:43.305Z,14.29
2023-02-18T10:24:01.476Z,14.17
2023-02-18T10:27:06.691Z,14.13
2023-02-18T10:30:09.494Z,14.15
2023-02-18T10:33:17.888Z,14.13
2023-02-18T10:36:31.162Z,14.13
2023-02-18T10:40:05.615Z,14.20
2023-02-18T10:43:35.734Z,14.48
2023-02-18T10:46:53.332Z,14.52
2023-02-18T10:50:02.218Z,14.65
2023-02-18T10:53:22.461Z,14.85
2023-02-18T10:56:40.138Z,15.14
2023-02-18T10:59:58.371Z,15.33
2023-02-18T11:03:20.320Z,15.52
2023-02-18T11:06:33.003Z,15.72
2023-02-18T11:09:54.531Z,15.65
2023-02-18T11:13:01.412Z,15.28
2023-02-18T11:16:09.357Z,15.19
2023-02-18T11:19:35.583Z,15.25
2023-02-18T11:22:41.107Z,15.10
2023-02-18T11:26:01.845Z,15.07
2023-02-18T11:29:21.583Z,15.16
2023-02-18T11:32:28.434Z,15.31
2023-02-18T11:35:33.183Z,15.25
2023-02-18T11:38:38.608Z,15.40
2023-02-18T11:41:45.692Z,15.32
2023-02-18T11:44:56.864Z,15.39
2023-02-18T11:48:22.949Z,15.36
2023-02-18T11:51:36.521Z,15.43
2023-02-18T11:54:39.441Z,15.44
2023-02-18T11:57:47.998Z,15.40
2023-02-18T12:00:54.216Z,15.53
2023-02-18T12:04:08.155Z,15.23
2023-02-18T12:07:31.754Z,15.19
2023-02-18T12:10:48.539Z,15.16
2023-02-18T12:13:55.282Z,15.30
2023-02-18T12:17:16.470Z,15.36
2023-02-18T12:20:43.964Z,15.46
2023-02-18T12:24:01.841Z,15.39
2023-02-18T12:27:34.888Z,15.33
2023-02-18T12:31:16.700Z,15.30
2023-02-18T12:34:38.639Z,15.24
2023-02-18T12:37:49.738Z,15.29
2023-02-18T12:41:16.591Z,15.48
2023-02-18T12:44:47.152Z,15.86
2023-02-18T12:48:10.800Z,16.16
2023-02-18T12:51:25.644Z,16.47
2023-02-18T12:55:05.235Z,16.41
2023-02-18T12:58:27.202Z,16.18
2023-02-18T13:01:54.344Z,16.13
2023-02-18T13:05:15.680Z,16.21
2023-02-18T13:08:36.308Z,16.12
2023-02-18T13:11:57.477Z,16.06
2023-02-18T13:15:05.276Z,15.99
2023-02-18T13:18:15.946Z,15.99
2023-02-18T13:21:18.185Z,16.08
2023-02-18T13:24:30.644Z,16.22
2023-02-18T13:27:41.974Z,16.31
2023-02-18T13:31:15.156Z,16.54
2023-02-18T13:34:28.731Z,16.56
2023-02-18T13:37:54.532Z,16.37
2023-02-18T13:40:59.533Z,16.41
2023-02-18T13:44:07.872Z,16.27
2023-02-18T13:47:10.517Z,16.23
2023-02-18T13:50:22.256Z,16.30
2023-02-18T13:53:28.681Z,16.35
2023-02-18T13:56:34.268Z,16.26
2023-02-18T13:59:41.901Z,16.09
2023-02-18T14:02:59.314Z,16.08
2023-02-18T14:06:12.888Z,16.20
2023-02-18T14:09:14.985Z,16.17
2023-02-18T14:12:24.561Z,16.20
2023-02-18T14:15:26.675Z,16.15
2023-02-18T14:18:54.093Z,16.26
2023-02-18T14:22:24.438Z,16.31
2023-02-18T14:25:41.005Z,16.30
2023-02-18T14:28:57.354Z,16.34
2023-02-18T14:32:12.179Z,16.23
2023-02-18T14:35:36.860Z,16.18
2023-02-18T14:38:45.526Z,16.35
2023-02-18T14:42:31.989Z,16.45
2023-02-18T14:45:49.444Z,16.32
2023-02-18T14:49:00.638Z,16.38
2023-02-18T14:52:06.389Z,16.23
2023-02-18T14:55:19.335Z,16.29
2023-02-18T14:58:30.901Z,15.90
2023-02-18T15:01:35.468Z,15.42
2023-02-18T15:04:38.025Z,15.06
2023-02-18T15:07:40.305Z,14.80
2023-02-18T15:11:06.204Z,14.48
2023-02-18T15:14:14.271Z,14.28
2023-02-18T15:17:24.545Z,14.10
2023-02-18T15:20:28.872Z,13.81
2023-02-18T15:23:34.509Z,13.64
2023-02-18T15:26:42.678Z,13.55
2023-02-18T15:29:50.569Z,13.36
2023-02-18T15:32:55.800Z,13.04
2023-02-18T15:36:06.867Z,12.82
2023-02-18T15:39:09.832Z,12.67
2023-02-18T15:42:19.619Z,12.53
2023-02-18T15:45:25.116Z,12.35
2023-02-18T15:48:33.014Z,12.30
2023-02-18T15:51:35.905Z,12.07
2023-02-18T15:54:41.673Z,11.88
2023-02-18T15:57:44.549Z,11.80
2023-02-18T16:00:56.386Z,11.68
2023-02-18T16:03:59.477Z,11.65
2023-02-18T16:07:16.810Z,11.53
2023-02-18T16:10:23.335Z,11.43
2023-02-18T16:13:26.871Z,11.25
2023-02-18T16:16:33.785Z,11.16
2023-02-18T16:20:08.064Z,11.04
2023-02-18T16:23:14.500Z,10.93
2023-02-18T16:26:28.553Z,10.85
2023-02-18T16:29:37.446Z,10.64
2023-02-18T16:32:39.917Z,10.50
2023-02-18T16:35:50.049Z,10.43
2023-02-18T16:38:52.983Z,10.28
2023-02-18T16:41:55.411Z,10.24
2023-02-18T16:44:57.551Z,10.18
2023-02-18T16:48:00.487Z,10.16
2023-02-18T16:51:06.680Z,10.12
2023-02-18T16:54:12.125Z,10.05
2023-02-18T16:57:14.640Z,10.07
2023-02-18T17:00:18.821Z,10.01
2023-02-18T17:03:21.913Z,10.01
2023-02-18T17:06:24.886Z,10.13
2023-02-18T17:09:27.567Z,10.00
2023-02-18T17:12:30.469Z,9.88
2023-02-18T17:15:35.441Z,9.95
2023-02-18T17:18:38.420Z,9.70
2023-02-18T17:21:40.766Z,9.66
2023-02-18T17:24:43.290Z,9.62
2023-02-18T17:27:47.957Z,9.55
2023-02-18T17:30:58.832Z,9.57
2023-02-18T17:34:06.293Z,9.57
2023-02-18T17:37:13.836Z,9.45
2023-02-18T17:40:19.011Z,9.31
2023-02-18T17:43:25.246Z,9.30
2023-02-18T17:46:28.117Z,9.21
2023-02-18T17:49:30.628Z,9.13
2023-02-18T17:52:32.895Z,9.13
2023-02-18T17:55:36.864Z,9.03
2023-02-18T17:58:39.252Z,8.98
2023-02-18T18:01:43.243Z,8.93
2023-02-18T18:04:45.700Z,8.94
2023-02-18T18:07:49.892Z,8.90
2023-02-18T18:10:59.220Z,8.87
2023-02-18T18:14:01.603Z,8.91
2023-02-18T18:17:04.144Z,8.92
2023-02-18T18:20:07.205Z,9.01
2023-02-18T18:23:18.381Z,8.93
2023-02-18T18:26:21.265Z,8.87
2023-02-18T18:29:24.550Z,8.89
2023-02-18T18:32:27.254Z,8.95
2023-02-18T18:35:35.478Z,8.92
2023-02-18T18:38:37.633Z,8.98
2023-02-18T18:41:40.227Z,9.06
2023-02-18T18:44:42.437Z,9.21
2023-02-18T18:47:45.865Z,9.16
2023-02-18T18:50:50.649Z,9.17
2023-02-18T18:53:53.517Z,9.29
2023-02-18T18:56:56.253Z,9.21
2023-02-18T18:59:59.072Z,9.17
2023-02-18T19:03:03.845Z,9.17
2023-02-18T19:06:09.550Z,9.18
2023-02-18T19:09:11.700Z,9.20
2023-02-18T19:12:14.181Z,9.16
2023-02-18T19:15:21.525Z,9.18
2023-02-18T19:18:24.218Z,9.13
2023-02-18T19:21:26.540Z,9.11
2023-02-18T19:24:29.140Z,9.10
2023-02-18T19:27:32.151Z,9.30
2023-02-18T19:30:37.104Z,9.31
2023-02-18T19:33:39.841Z,9.29
2023-02-18T19:36:44.998Z,9.20
2023-02-18T19:39:47.489Z,9.17
2023-02-18T19:42:50.676Z,9.11
2023-02-18T19:45:52.836Z,9.10
2023-02-18T19:48:56.020Z,9.12
2023-02-18T19:52:03.892Z,8.98
2023-02-18T19:55:07.181Z,9.13
2023-02-18T19:58:09.684Z,8.94
2023-02-18T20:01:17.157Z,9.04
2023-02-18T20:04:20.120Z,8.94
2023-02-18T20:07:22.716Z,8.90
2023-02-18T20:10:25.578Z,9.06
2023-02-18T20:13:29.987Z,9.06
2023-02-18T20:16:32.806Z,9.20
2023-02-18T20:19:35.312Z,9.22
2023-02-18T20:22:37.788Z,9.32
2023-02-18T20:25:40.157Z,9.29
2023-02-18T20:28:42.893Z,9.28
2023-02-18T20:31:46.048Z,9.31
2023-02-18T20:34:48.653Z,9.31
2023-02-18T20:37:51.261Z,9.38
2023-02-18T20:40:53.888Z,9.39
2023-02-18T20:43:59.642Z,9.43
2023-02-18T20:47:02.144Z,9.50
2023-02-18T20:50:04.940Z,9.47
2023-02-18T20:53:07.877Z,9.38
2023-02-18T20:56:10.738Z,9.48
2023-02-18T20:59:15.900Z,9.60
2023-02-18T21:02:18.539Z,9.64
2023-02-18T21:05:21.066Z,9.58
2023-02-18T21:08:24.133Z,9.58
2023-02-18T21:11:27.468Z,9.61
2023-02-18T21:14:30.009Z,9.64
2023-02-18T21:17:32.820Z,9.76
2023-02-18T21:20:34.983Z,9.72
2023-02-18T21:23:38.583Z,9.85
2023-02-18T21:26:40.891Z,9.77
2023-02-18T21:29:43.884Z,9.72
2023-02-18T21:32:46.010Z,9.81
2023-02-18T21:35:51.169Z,9.82
2023-02-18T21:39:05.505Z,9.98
2023-02-18T21:42:08.544Z,10.16
2023-02-18T21:45:16.823Z,10.04
2023-02-18T21:48:38.756Z,9.94
2023-02-18T21:52:08.561Z,9.99
2023-02-18T21:55:11.245Z,9.87
2023-02-18T21:58:13.405Z,9.87
2023-02-18T22:01:15.866Z,9.90
2023-02-18T22:04:19.009Z,10.01
2023-02-18T22:07:25.507Z,10.10
2023-02-18T22:10:29.329Z,10.34
2023-02-18T22:13:31.710Z,10.50
2023-02-18T22:16:34.838Z,10.63
2023-02-18T22:19:37.198Z,10.66
2023-02-18T22:22:39.999Z,10.79
2023-02-18T22:25:42.191Z,10.77
2023-02-18T22:28:50.089Z,10.80
2023-02-18T22:31:53.502Z,10.84
2023-02-18T22:34:56.865Z,10.97
2023-02-18T22:37:59.168Z,11.01
2023-02-18T22:41:11.092Z,11.03
2023-02-18T22:44:16.277Z,11.13
2023-02-18T22:47:18.752Z,11.17
2023-02-18T22:50:22.007Z,11.26
2023-02-18T22:53:24.824Z,11.37
2023-02-18T22:56:29.565Z,11.26
2023-02-18T22:59:32.222Z,11.21
2023-02-18T23:02:34.358Z,11.31
2023-02-18T23:05:37.197Z,11.21
2023-02-18T23:08:39.618Z,11.35
2023-02-18T23:11:42.582Z,11.30
2023-02-18T23:14:45.136Z,11.31
2023-02-18T23:17:49.052Z,11.27
2023-02-18T23:21:10.022Z,11.20
2023-02-18T23:24:12.721Z,11.17
2023-02-18T23:27:15.933Z,11.14
2023-02-18T23:30:18.765Z,11.21
2023-02-18T23:33:21.267Z,10.97
2023-02-18T23:36:27.378Z,10.87
2023-02-18T23:39:30.184Z,10.78
2023-02-18T23:42:32.989Z,10.98
2023-02-18T23:45:35.984Z,10.95
2023-02-18T23:48:39.335Z,11.04
2023-02-18T23:51:42.204Z,10.95
2023-02-18T23:54:44.765Z,11.01
2023-02-18T23:57:47.090Z,10.86
